sensor_id;sensor_type;location;lat;lon;timestamp;P1;durP1;ratioP1;P2;durP2;ratioP2
22176;SDS011;11254;50.098;8.726;2022-11-04T00:01:43;11.80;;;5.78;;
22176;SDS011;11254;50.098;8.726;2022-11-04T00:04:14;12.95;;;5.95;;
22176;SDS011;11254;50.098;8.726;2022-11-04T00:06:43;10.93;;;5.72;;
22176;SDS011;11254;50.098;8.726;2022-11-04T00:09:12;10.82;;;5.72;;
22176;SDS011;11254;50.098;8.726;2022-11-04T00:11:40;13.98;;;6.50;;
22176;SDS011;11254;50.098;8.726;2022-11-04T00:14:27;10.02;;;5.50;;
22176;SDS011;11254;50.098;8.726;2022-11-04T00:16:55;12.13;;;5.65;;
22176;SDS011;11254;50.098;8.726;2022-11-04T00:19:43;11.35;;;5.93;;
22176;SDS011;11254;50.098;8.726;2022-11-04T00:22:29;10.48;;;5.85;;
22176;SDS011;11254;50.098;8.726;2022-11-04T00:25:15;9.70;;;5.47;;
22176;SDS011;11254;50.098;8.726;2022-11-04T00:28:02;9.13;;;5.15;;
22176;SDS011;11254;50.098;8.726;2022-11-04T00:30:48;10.23;;;4.88;;
22176;SDS011;11254;50.098;8.726;2022-11-04T00:33:19;11.27;;;5.15;;
22176;SDS011;11254;50.098;8.726;2022-11-04T00:35:55;11.40;;;5.35;;
22176;SDS011;11254;50.098;8.726;2022-11-04T00:38:24;11.65;;;5.45;;
22176;SDS011;11254;50.098;8.726;2022-11-04T00:40:52;9.40;;;5.15;;
22176;SDS011;11254;50.098;8.726;2022-11-04T00:43:21;10.65;;;5.35;;
22176;SDS011;11254;50.098;8.726;2022-11-04T00:45:49;12.05;;;4.95;;
22176;SDS011;11254;50.098;8.726;2022-11-04T00:48:17;9.27;;;5.22;;
22176;SDS011;11254;50.098;8.726;2022-11-04T00:50:46;9.73;;;4.75;;
22176;SDS011;11254;50.098;8.726;2022-11-04T00:53:15;10.82;;;4.68;;
22176;SDS011;11254;50.098;8.726;2022-11-04T00:55:43;8.13;;;4.15;;
22176;SDS011;11254;50.098;8.726;2022-11-04T00:58:12;8.38;;;4.57;;
22176;SDS011;11254;50.098;8.726;2022-11-04T01:00:40;10.63;;;4.63;;
22176;SDS011;11254;50.098;8.726;2022-11-04T01:03:08;7.43;;;3.70;;
22176;SDS011;11254;50.098;8.726;2022-11-04T01:05:37;7.95;;;3.78;;
22176;SDS011;11254;50.098;8.726;2022-11-04T01:08:05;9.70;;;3.80;;
22176;SDS011;11254;50.098;8.726;2022-11-04T01:10:35;8.85;;;3.83;;
22176;SDS011;11254;50.098;8.726;2022-11-04T01:13:09;7.22;;;3.28;;
22176;SDS011;11254;50.098;8.726;2022-11-04T01:15:38;5.93;;;3.10;;
22176;SDS011;11254;50.098;8.726;2022-11-04T01:18:06;7.07;;;3.25;;
22176;SDS011;11254;50.098;8.726;2022-11-04T01:20:35;5.80;;;3.10;;
22176;SDS011;11254;50.098;8.726;2022-11-04T01:23:04;6.47;;;3.20;;
22176;SDS011;11254;50.098;8.726;2022-11-04T01:25:32;5.38;;;2.75;;
22176;SDS011;11254;50.098;8.726;2022-11-04T01:28:02;4.75;;;2.22;;
22176;SDS011;11254;50.098;8.726;2022-11-04T01:30:30;9.23;;;3.03;;
22176;SDS011;11254;50.098;8.726;2022-11-04T01:32:58;4.65;;;2.38;;
22176;SDS011;11254;50.098;8.726;2022-11-04T01:35:27;6.90;;;3.08;;
22176;SDS011;11254;50.098;8.726;2022-11-04T01:37:56;4.95;;;2.40;;
22176;SDS011;11254;50.098;8.726;2022-11-04T01:40:25;5.25;;;1.95;;
22176;SDS011;11254;50.098;8.726;2022-11-04T01:42:53;5.30;;;2.25;;
22176;SDS011;11254;50.098;8.726;2022-11-04T01:45:23;5.65;;;2.10;;
22176;SDS011;11254;50.098;8.726;2022-11-04T01:47:52;3.95;;;1.63;;
22176;SDS011;11254;50.098;8.726;2022-11-04T01:50:29;3.78;;;1.80;;
22176;SDS011;11254;50.098;8.726;2022-11-04T01:52:59;4.47;;;1.80;;
22176;SDS011;11254;50.098;8.726;2022-11-04T01:55:32;3.20;;;1.50;;
22176;SDS011;11254;50.098;8.726;2022-11-04T01:58:01;4.90;;;1.95;;
22176;SDS011;11254;50.098;8.726;2022-11-04T02:00:32;5.13;;;1.45;;
22176;SDS011;11254;50.098;8.726;2022-11-04T02:03:01;3.45;;;1.25;;
22176;SDS011;11254;50.098;8.726;2022-11-04T02:05:31;2.88;;;1.40;;
22176;SDS011;11254;50.098;8.726;2022-11-04T02:08:01;4.63;;;1.35;;
22176;SDS011;11254;50.098;8.726;2022-11-04T02:10:31;5.80;;;1.25;;
22176;SDS011;11254;50.098;8.726;2022-11-04T02:13:00;3.03;;;1.20;;
22176;SDS011;11254;50.098;8.726;2022-11-04T02:15:29;4.03;;;1.40;;
22176;SDS011;11254;50.098;8.726;2022-11-04T02:18:10;4.50;;;1.35;;
22176;SDS011;11254;50.098;8.726;2022-11-04T02:20:47;4.10;;;1.30;;
22176;SDS011;11254;50.098;8.726;2022-11-04T02:23:30;2.75;;;1.00;;
22176;SDS011;11254;50.098;8.726;2022-11-04T02:26:06;3.10;;;1.33;;
22176;SDS011;11254;50.098;8.726;2022-11-04T02:28:45;4.75;;;1.08;;
22176;SDS011;11254;50.098;8.726;2022-11-04T02:31:18;3.63;;;1.02;;
22176;SDS011;11254;50.098;8.726;2022-11-04T02:33:51;3.17;;;1.25;;
22176;SDS011;11254;50.098;8.726;2022-11-04T02:36:23;2.80;;;1.02;;
22176;SDS011;11254;50.098;8.726;2022-11-04T02:38:55;2.80;;;1.13;;
22176;SDS011;11254;50.098;8.726;2022-11-04T02:41:28;3.17;;;1.38;;
22176;SDS011;11254;50.098;8.726;2022-11-04T02:44:03;3.72;;;1.10;;
22176;SDS011;11254;50.098;8.726;2022-11-04T02:50:13;2.60;;;1.00;;
22176;SDS011;11254;50.098;8.726;2022-11-04T02:52:45;2.58;;;1.00;;
22176;SDS011;11254;50.098;8.726;2022-11-04T02:55:17;3.65;;;1.10;;
22176;SDS011;11254;50.098;8.726;2022-11-04T02:57:47;4.93;;;1.20;;
22176;SDS011;11254;50.098;8.726;2022-11-04T03:00:17;4.15;;;0.95;;
22176;SDS011;11254;50.098;8.726;2022-11-04T03:02:48;3.45;;;1.15;;
22176;SDS011;11254;50.098;8.726;2022-11-04T03:05:21;2.75;;;0.80;;
22176;SDS011;11254;50.098;8.726;2022-11-04T03:08:03;2.55;;;0.90;;
22176;SDS011;11254;50.098;8.726;2022-11-04T03:10:34;2.53;;;0.80;;
22176;SDS011;11254;50.098;8.726;2022-11-04T03:13:05;2.15;;;0.93;;
22176;SDS011;11254;50.098;8.726;2022-11-04T03:15:35;2.08;;;0.80;;
22176;SDS011;11254;50.098;8.726;2022-11-04T03:18:07;2.47;;;0.80;;
22176;SDS011;11254;50.098;8.726;2022-11-04T03:20:40;4.40;;;1.00;;
22176;SDS011;11254;50.098;8.726;2022-11-04T03:23:10;5.43;;;0.90;;
22176;SDS011;11254;50.098;8.726;2022-11-04T03:25:39;2.35;;;0.80;;
22176;SDS011;11254;50.098;8.726;2022-11-04T03:28:12;1.80;;;0.70;;
22176;SDS011;11254;50.098;8.726;2022-11-04T03:30:44;3.67;;;1.02;;
22176;SDS011;11254;50.098;8.726;2022-11-04T03:33:14;4.03;;;0.80;;
22176;SDS011;11254;50.098;8.726;2022-11-04T03:35:47;1.73;;;0.65;;
22176;SDS011;11254;50.098;8.726;2022-11-04T03:38:16;2.63;;;0.80;;
22176;SDS011;11254;50.098;8.726;2022-11-04T03:40:44;3.40;;;0.93;;
22176;SDS011;11254;50.098;8.726;2022-11-04T03:43:13;2.45;;;0.82;;
22176;SDS011;11254;50.098;8.726;2022-11-04T03:45:42;1.75;;;0.68;;
22176;SDS011;11254;50.098;8.726;2022-11-04T03:48:11;4.18;;;1.00;;
22176;SDS011;11254;50.098;8.726;2022-11-04T03:50:40;4.10;;;1.00;;
22176;SDS011;11254;50.098;8.726;2022-11-04T03:53:10;3.35;;;0.75;;
22176;SDS011;11254;50.098;8.726;2022-11-04T03:55:42;5.50;;;0.80;;
22176;SDS011;11254;50.098;8.726;2022-11-04T03:58:14;4.00;;;0.93;;
22176;SDS011;11254;50.098;8.726;2022-11-04T04:00:48;2.97;;;0.80;;
22176;SDS011;11254;50.098;8.726;2022-11-04T04:03:17;3.15;;;0.80;;
22176;SDS011;11254;50.098;8.726;2022-11-04T04:05:50;4.75;;;0.80;;
22176;SDS011;11254;50.098;8.726;2022-11-04T04:08:24;3.10;;;0.80;;
22176;SDS011;11254;50.098;8.726;2022-11-04T04:10:59;1.33;;;0.60;;
22176;SDS011;11254;50.098;8.726;2022-11-04T04:13:32;3.15;;;0.70;;
22176;SDS011;11254;50.098;8.726;2022-11-04T04:16:03;2.80;;;0.90;;
22176;SDS011;11254;50.098;8.726;2022-11-04T04:18:35;2.58;;;0.80;;
22176;SDS011;11254;50.098;8.726;2022-11-04T04:21:06;2.25;;;0.70;;
22176;SDS011;11254;50.098;8.726;2022-11-04T04:23:37;3.17;;;0.80;;
22176;SDS011;11254;50.098;8.726;2022-11-04T04:26:24;2.67;;;0.80;;
22176;SDS011;11254;50.098;8.726;2022-11-04T04:29:10;2.67;;;0.70;;
22176;SDS011;11254;50.098;8.726;2022-11-04T04:31:39;2.85;;;0.90;;
22176;SDS011;11254;50.098;8.726;2022-11-04T04:34:18;2.33;;;0.88;;
22176;SDS011;11254;50.098;8.726;2022-11-04T04:36:50;3.65;;;0.80;;
22176;SDS011;11254;50.098;8.726;2022-11-04T04:39:21;2.63;;;0.75;;
22176;SDS011;11254;50.098;8.726;2022-11-04T04:42:07;2.28;;;0.70;;
22176;SDS011;11254;50.098;8.726;2022-11-04T04:44:54;1.77;;;0.80;;
22176;SDS011;11254;50.098;8.726;2022-11-04T04:47:26;4.07;;;1.00;;
22176;SDS011;11254;50.098;8.726;2022-11-04T04:49:56;5.95;;;1.00;;
22176;SDS011;11254;50.098;8.726;2022-11-04T04:52:26;2.67;;;1.00;;
22176;SDS011;11254;50.098;8.726;2022-11-04T04:54:57;3.25;;;1.17;;
22176;SDS011;11254;50.098;8.726;2022-11-04T04:57:25;4.80;;;1.20;;
22176;SDS011;11254;50.098;8.726;2022-11-04T04:59:53;2.67;;;0.82;;
22176;SDS011;11254;50.098;8.726;2022-11-04T05:02:22;1.95;;;0.80;;
22176;SDS011;11254;50.098;8.726;2022-11-04T05:04:50;3.28;;;1.20;;
22176;SDS011;11254;50.098;8.726;2022-11-04T05:07:18;2.90;;;1.05;;
22176;SDS011;11254;50.098;8.726;2022-11-04T05:09:47;4.57;;;1.23;;
22176;SDS011;11254;50.098;8.726;2022-11-04T05:12:16;3.17;;;1.05;;
22176;SDS011;11254;50.098;8.726;2022-11-04T05:14:45;3.25;;;1.45;;
22176;SDS011;11254;50.098;8.726;2022-11-04T05:17:13;5.03;;;1.20;;
22176;SDS011;11254;50.098;8.726;2022-11-04T05:19:41;3.45;;;1.23;;
22176;SDS011;11254;50.098;8.726;2022-11-04T05:22:10;6.13;;;1.30;;
22176;SDS011;11254;50.098;8.726;2022-11-04T05:24:38;7.07;;;1.80;;
22176;SDS011;11254;50.098;8.726;2022-11-04T05:27:06;4.32;;;1.35;;
22176;SDS011;11254;50.098;8.726;2022-11-04T05:29:36;4.03;;;1.60;;
22176;SDS011;11254;50.098;8.726;2022-11-04T05:32:04;4.70;;;1.63;;
22176;SDS011;11254;50.098;8.726;2022-11-04T05:34:33;3.63;;;1.42;;
22176;SDS011;11254;50.098;8.726;2022-11-04T05:37:01;8.35;;;1.40;;
22176;SDS011;11254;50.098;8.726;2022-11-04T05:39:29;6.13;;;1.73;;
22176;SDS011;11254;50.098;8.726;2022-11-04T05:41:57;3.88;;;1.42;;
22176;SDS011;11254;50.098;8.726;2022-11-04T05:44:26;7.15;;;1.73;;
22176;SDS011;11254;50.098;8.726;2022-11-04T05:46:56;6.65;;;1.98;;
22176;SDS011;11254;50.098;8.726;2022-11-04T05:49:24;6.80;;;1.90;;
22176;SDS011;11254;50.098;8.726;2022-11-04T05:51:53;4.80;;;2.17;;
22176;SDS011;11254;50.098;8.726;2022-11-04T05:54:21;6.05;;;1.55;;
22176;SDS011;11254;50.098;8.726;2022-11-04T05:56:49;9.60;;;1.90;;
22176;SDS011;11254;50.098;8.726;2022-11-04T05:59:18;6.05;;;1.70;;
22176;SDS011;11254;50.098;8.726;2022-11-04T06:01:46;6.15;;;1.80;;
22176;SDS011;11254;50.098;8.726;2022-11-04T06:04:17;5.53;;;1.95;;
22176;SDS011;11254;50.098;8.726;2022-11-04T06:06:45;8.38;;;2.22;;
22176;SDS011;11254;50.098;8.726;2022-11-04T06:09:14;5.22;;;1.88;;
22176;SDS011;11254;50.098;8.726;2022-11-04T06:11:42;11.68;;;2.22;;
22176;SDS011;11254;50.098;8.726;2022-11-04T06:14:11;5.88;;;2.28;;
22176;SDS011;11254;50.098;8.726;2022-11-04T06:16:44;11.93;;;3.70;;
22176;SDS011;11254;50.098;8.726;2022-11-04T06:19:13;10.50;;;3.80;;
22176;SDS011;11254;50.098;8.726;2022-11-04T06:21:43;7.45;;;2.20;;
22176;SDS011;11254;50.098;8.726;2022-11-04T06:24:11;5.78;;;1.95;;
22176;SDS011;11254;50.098;8.726;2022-11-04T06:26:39;8.68;;;2.50;;
22176;SDS011;11254;50.098;8.726;2022-11-04T06:29:08;8.63;;;1.98;;
22176;SDS011;11254;50.098;8.726;2022-11-04T06:31:36;6.82;;;2.30;;
22176;SDS011;11254;50.098;8.726;2022-11-04T06:34:04;5.72;;;2.05;;
22176;SDS011;11254;50.098;8.726;2022-11-04T06:36:33;5.60;;;2.22;;
22176;SDS011;11254;50.098;8.726;2022-11-04T06:39:03;4.75;;;1.90;;
22176;SDS011;11254;50.098;8.726;2022-11-04T06:41:33;6.88;;;2.67;;
22176;SDS011;11254;50.098;8.726;2022-11-04T06:44:01;4.47;;;1.75;;
22176;SDS011;11254;50.098;8.726;2022-11-04T06:46:30;5.45;;;1.95;;
22176;SDS011;11254;50.098;8.726;2022-11-04T06:48:59;6.63;;;1.83;;
22176;SDS011;11254;50.098;8.726;2022-11-04T06:51:27;9.80;;;1.98;;
22176;SDS011;11254;50.098;8.726;2022-11-04T06:53:56;6.15;;;2.03;;
22176;SDS011;11254;50.098;8.726;2022-11-04T06:56:26;8.27;;;2.10;;
22176;SDS011;11254;50.098;8.726;2022-11-04T06:58:55;7.28;;;2.25;;
22176;SDS011;11254;50.098;8.726;2022-11-04T07:01:24;5.00;;;1.70;;
22176;SDS011;11254;50.098;8.726;2022-11-04T07:03:54;8.40;;;2.20;;
22176;SDS011;11254;50.098;8.726;2022-11-04T07:06:23;7.10;;;2.00;;
22176;SDS011;11254;50.098;8.726;2022-11-04T07:08:55;8.98;;;2.08;;
22176;SDS011;11254;50.098;8.726;2022-11-04T07:11:24;10.65;;;2.33;;
22176;SDS011;11254;50.098;8.726;2022-11-04T07:13:54;6.47;;;1.90;;
22176;SDS011;11254;50.098;8.726;2022-11-04T07:16:22;4.80;;;1.95;;
22176;SDS011;11254;50.098;8.726;2022-11-04T07:18:52;4.75;;;2.00;;
22176;SDS011;11254;50.098;8.726;2022-11-04T07:21:21;7.28;;;2.17;;
22176;SDS011;11254;50.098;8.726;2022-11-04T07:23:49;8.13;;;2.13;;
22176;SDS011;11254;50.098;8.726;2022-11-04T07:26:17;6.40;;;2.13;;
22176;SDS011;11254;50.098;8.726;2022-11-04T07:28:46;6.68;;;2.05;;
22176;SDS011;11254;50.098;8.726;2022-11-04T07:31:16;4.53;;;1.75;;
22176;SDS011;11254;50.098;8.726;2022-11-04T07:33:44;14.60;;;3.80;;
22176;SDS011;11254;50.098;8.726;2022-11-04T07:36:15;8.43;;;2.15;;
22176;SDS011;11254;50.098;8.726;2022-11-04T07:38:44;6.45;;;2.15;;
22176;SDS011;11254;50.098;8.726;2022-11-04T07:41:12;4.90;;;1.80;;
22176;SDS011;11254;50.098;8.726;2022-11-04T07:43:41;5.03;;;1.92;;
22176;SDS011;11254;50.098;8.726;2022-11-04T07:46:10;10.02;;;2.10;;
22176;SDS011;11254;50.098;8.726;2022-11-04T07:48:41;5.07;;;1.83;;
22176;SDS011;11254;50.098;8.726;2022-11-04T07:51:10;6.50;;;1.95;;
22176;SDS011;11254;50.098;8.726;2022-11-04T07:53:39;6.68;;;1.75;;
22176;SDS011;11254;50.098;8.726;2022-11-04T07:56:09;4.55;;;1.48;;
22176;SDS011;11254;50.098;8.726;2022-11-04T07:58:38;5.07;;;1.58;;
22176;SDS011;11254;50.098;8.726;2022-11-04T08:01:07;5.78;;;1.63;;
22176;SDS011;11254;50.098;8.726;2022-11-04T08:07:43;3.88;;;1.33;;
22176;SDS011;11254;50.098;8.726;2022-11-04T08:10:12;4.88;;;1.30;;
22176;SDS011;11254;50.098;8.726;2022-11-04T08:12:40;4.25;;;1.55;;
22176;SDS011;11254;50.098;8.726;2022-11-04T08:15:09;13.40;;;1.80;;
22176;SDS011;11254;50.098;8.726;2022-11-04T08:17:37;5.22;;;1.90;;
22176;SDS011;11254;50.098;8.726;2022-11-04T08:20:06;4.75;;;1.98;;
22176;SDS011;11254;50.098;8.726;2022-11-04T08:22:35;4.68;;;1.85;;
22176;SDS011;11254;50.098;8.726;2022-11-04T08:25:05;6.95;;;1.85;;
22176;SDS011;11254;50.098;8.726;2022-11-04T08:27:33;6.40;;;1.73;;
22176;SDS011;11254;50.098;8.726;2022-11-04T08:30:02;4.80;;;1.83;;
22176;SDS011;11254;50.098;8.726;2022-11-04T08:32:30;4.32;;;1.63;;
22176;SDS011;11254;50.098;8.726;2022-11-04T08:34:58;6.85;;;1.83;;
22176;SDS011;11254;50.098;8.726;2022-11-04T08:37:27;6.40;;;1.80;;
22176;SDS011;11254;50.098;8.726;2022-11-04T08:39:55;9.45;;;1.83;;
22176;SDS011;11254;50.098;8.726;2022-11-04T08:42:25;7.35;;;1.60;;
22176;SDS011;11254;50.098;8.726;2022-11-04T08:44:54;5.90;;;1.58;;
22176;SDS011;11254;50.098;8.726;2022-11-04T08:47:22;6.95;;;1.50;;
22176;SDS011;11254;50.098;8.726;2022-11-04T08:49:50;5.05;;;1.55;;
22176;SDS011;11254;50.098;8.726;2022-11-04T08:52:19;5.50;;;1.48;;
22176;SDS011;11254;50.098;8.726;2022-11-04T08:54:47;5.18;;;1.60;;
22176;SDS011;11254;50.098;8.726;2022-11-04T08:57:22;6.50;;;1.70;;
22176;SDS011;11254;50.098;8.726;2022-11-04T08:59:52;6.40;;;1.60;;
22176;SDS011;11254;50.098;8.726;2022-11-04T09:06:35;5.82;;;1.83;;
22176;SDS011;11254;50.098;8.726;2022-11-04T09:09:05;5.85;;;1.65;;
22176;SDS011;11254;50.098;8.726;2022-11-04T09:11:36;6.80;;;1.80;;
22176;SDS011;11254;50.098;8.726;2022-11-04T09:14:05;5.55;;;2.25;;
22176;SDS011;11254;50.098;8.726;2022-11-04T09:16:35;7.93;;;1.45;;
22176;SDS011;11254;50.098;8.726;2022-11-04T09:19:04;5.05;;;1.60;;
22176;SDS011;11254;50.098;8.726;2022-11-04T09:21:32;4.90;;;1.50;;
22176;SDS011;11254;50.098;8.726;2022-11-04T09:24:01;6.00;;;1.67;;
22176;SDS011;11254;50.098;8.726;2022-11-04T09:26:29;4.10;;;1.40;;
22176;SDS011;11254;50.098;8.726;2022-11-04T09:28:58;5.85;;;1.77;;
22176;SDS011;11254;50.098;8.726;2022-11-04T09:31:27;5.82;;;1.48;;
22176;SDS011;11254;50.098;8.726;2022-11-04T09:33:58;4.40;;;1.38;;
22176;SDS011;11254;50.098;8.726;2022-11-04T09:36:26;6.50;;;1.50;;
22176;SDS011;11254;50.098;8.726;2022-11-04T09:38:55;6.70;;;1.40;;
22176;SDS011;11254;50.098;8.726;2022-11-04T09:41:33;7.07;;;1.42;;
22176;SDS011;11254;50.098;8.726;2022-11-04T09:44:08;5.82;;;1.67;;
22176;SDS011;11254;50.098;8.726;2022-11-04T09:46:37;5.32;;;1.70;;
22176;SDS011;11254;50.098;8.726;2022-11-04T09:49:08;7.53;;;1.60;;
22176;SDS011;11254;50.098;8.726;2022-11-04T09:51:38;7.47;;;1.30;;
22176;SDS011;11254;50.098;8.726;2022-11-04T09:54:23;5.53;;;1.20;;
22176;SDS011;11254;50.098;8.726;2022-11-04T09:56:52;6.28;;;1.70;;
22176;SDS011;11254;50.098;8.726;2022-11-04T09:59:24;6.28;;;1.35;;
22176;SDS011;11254;50.098;8.726;2022-11-04T10:01:55;4.68;;;1.10;;
22176;SDS011;11254;50.098;8.726;2022-11-04T10:04:32;8.70;;;1.45;;
22176;SDS011;11254;50.098;8.726;2022-11-04T10:07:06;6.22;;;1.20;;
22176;SDS011;11254;50.098;8.726;2022-11-04T10:09:39;8.13;;;1.52;;
22176;SDS011;11254;50.098;8.726;2022-11-04T10:12:14;3.38;;;1.20;;
22176;SDS011;11254;50.098;8.726;2022-11-04T10:14:52;6.10;;;1.20;;
22176;SDS011;11254;50.098;8.726;2022-11-04T10:17:34;8.77;;;1.80;;
22176;SDS011;11254;50.098;8.726;2022-11-04T10:20:17;4.05;;;1.13;;
22176;SDS011;11254;50.098;8.726;2022-11-04T10:22:51;11.05;;;1.30;;
22176;SDS011;11254;50.098;8.726;2022-11-04T10:25:24;8.60;;;2.30;;
22176;SDS011;11254;50.098;8.726;2022-11-04T10:27:52;4.35;;;1.40;;
22176;SDS011;11254;50.098;8.726;2022-11-04T10:30:21;8.07;;;1.67;;
22176;SDS011;11254;50.098;8.726;2022-11-04T10:32:56;7.18;;;1.00;;
22176;SDS011;11254;50.098;8.726;2022-11-04T10:35:29;3.67;;;1.20;;
22176;SDS011;11254;50.098;8.726;2022-11-04T10:38:00;3.53;;;1.20;;
22176;SDS011;11254;50.098;8.726;2022-11-04T10:40:35;3.15;;;1.00;;
22176;SDS011;11254;50.098;8.726;2022-11-04T10:43:06;4.07;;;0.70;;
22176;SDS011;11254;50.098;8.726;2022-11-04T10:45:38;4.55;;;1.35;;
22176;SDS011;11254;50.098;8.726;2022-11-04T10:48:10;5.03;;;1.13;;
22176;SDS011;11254;50.098;8.726;2022-11-04T10:50:43;5.07;;;1.35;;
22176;SDS011;11254;50.098;8.726;2022-11-04T10:53:14;4.32;;;0.90;;
22176;SDS011;11254;50.098;8.726;2022-11-04T10:55:46;3.47;;;1.05;;
22176;SDS011;11254;50.098;8.726;2022-11-04T10:58:16;6.25;;;1.20;;
22176;SDS011;11254;50.098;8.726;2022-11-04T11:00:45;4.63;;;1.00;;
22176;SDS011;11254;50.098;8.726;2022-11-04T11:03:27;4.32;;;1.30;;
22176;SDS011;11254;50.098;8.726;2022-11-04T11:06:12;3.78;;;1.15;;
22176;SDS011;11254;50.098;8.726;2022-11-04T11:08:41;6.88;;;1.40;;
22176;SDS011;11254;50.098;8.726;2022-11-04T11:11:09;4.38;;;1.02;;
22176;SDS011;11254;50.098;8.726;2022-11-04T11:13:38;4.00;;;1.00;;
22176;SDS011;11254;50.098;8.726;2022-11-04T11:16:08;6.13;;;1.15;;
22176;SDS011;11254;50.098;8.726;2022-11-04T11:18:38;4.50;;;1.02;;
22176;SDS011;11254;50.098;8.726;2022-11-04T11:21:13;7.03;;;1.13;;
22176;SDS011;11254;50.098;8.726;2022-11-04T11:23:46;3.28;;;0.77;;
22176;SDS011;11254;50.098;8.726;2022-11-04T11:26:17;5.40;;;1.00;;
22176;SDS011;11254;50.098;8.726;2022-11-04T11:28:47;8.68;;;1.33;;
22176;SDS011;11254;50.098;8.726;2022-11-04T11:31:23;6.70;;;1.55;;
22176;SDS011;11254;50.098;8.726;2022-11-04T11:33:53;3.25;;;1.13;;
22176;SDS011;11254;50.098;8.726;2022-11-04T11:36:24;5.30;;;1.00;;
22176;SDS011;11254;50.098;8.726;2022-11-04T11:38:58;5.88;;;1.38;;
22176;SDS011;11254;50.098;8.726;2022-11-04T11:41:29;4.47;;;1.48;;
22176;SDS011;11254;50.098;8.726;2022-11-04T11:43:58;7.72;;;1.50;;
22176;SDS011;11254;50.098;8.726;2022-11-04T11:46:28;3.80;;;1.10;;
22176;SDS011;11254;50.098;8.726;2022-11-04T11:48:58;4.70;;;1.25;;
22176;SDS011;11254;50.098;8.726;2022-11-04T11:51:29;6.65;;;1.30;;
22176;SDS011;11254;50.098;8.726;2022-11-04T11:54:06;5.75;;;1.45;;
22176;SDS011;11254;50.098;8.726;2022-11-04T11:56:41;6.20;;;1.40;;
22176;SDS011;11254;50.098;8.726;2022-11-04T11:59:32;5.70;;;1.60;;
22176;SDS011;11254;50.098;8.726;2022-11-04T12:02:24;5.43;;;1.20;;
22176;SDS011;11254;50.098;8.726;2022-11-04T12:04:54;6.55;;;1.20;;
22176;SDS011;11254;50.098;8.726;2022-11-04T12:07:46;4.78;;;1.30;;
22176;SDS011;11254;50.098;8.726;2022-11-04T12:10:37;6.93;;;1.42;;
22176;SDS011;11254;50.098;8.726;2022-11-04T12:13:18;3.55;;;1.05;;
22176;SDS011;11254;50.098;8.726;2022-11-04T12:15:58;5.13;;;1.20;;
22176;SDS011;11254;50.098;8.726;2022-11-04T12:21:21;6.35;;;1.42;;
22176;SDS011;11254;50.098;8.726;2022-11-04T12:24:00;7.38;;;1.65;;
22176;SDS011;11254;50.098;8.726;2022-11-04T12:26:35;4.13;;;1.35;;
22176;SDS011;11254;50.098;8.726;2022-11-04T12:29:11;6.03;;;1.40;;
22176;SDS011;11254;50.098;8.726;2022-11-04T12:31:46;6.85;;;1.42;;
22176;SDS011;11254;50.098;8.726;2022-11-04T12:34:19;6.63;;;1.95;;
22176;SDS011;11254;50.098;8.726;2022-11-04T12:37:01;6.97;;;1.48;;
22176;SDS011;11254;50.098;8.726;2022-11-04T12:39:40;7.05;;;2.80;;
22176;SDS011;11254;50.098;8.726;2022-11-04T12:42:13;5.45;;;1.48;;
22176;SDS011;11254;50.098;8.726;2022-11-04T12:44:50;5.38;;;1.38;;
22176;SDS011;11254;50.098;8.726;2022-11-04T12:47:23;4.63;;;1.35;;
22176;SDS011;11254;50.098;8.726;2022-11-04T12:50:08;6.57;;;1.42;;
22176;SDS011;11254;50.098;8.726;2022-11-04T12:52:42;4.32;;;1.10;;
22176;SDS011;11254;50.098;8.726;2022-11-04T12:55:21;7.60;;;1.20;;
22176;SDS011;11254;50.098;8.726;2022-11-04T12:57:54;4.38;;;1.33;;
22176;SDS011;11254;50.098;8.726;2022-11-04T13:00:25;7.22;;;1.48;;
22176;SDS011;11254;50.098;8.726;2022-11-04T13:02:57;5.93;;;1.27;;
22176;SDS011;11254;50.098;8.726;2022-11-04T13:05:34;6.55;;;1.55;;
22176;SDS011;11254;50.098;8.726;2022-11-04T13:08:06;6.97;;;1.35;;
22176;SDS011;11254;50.098;8.726;2022-11-04T13:10:42;5.78;;;1.40;;
22176;SDS011;11254;50.098;8.726;2022-11-04T13:13:13;4.85;;;1.42;;
22176;SDS011;11254;50.098;8.726;2022-11-04T13:15:44;4.60;;;1.45;;
22176;SDS011;11254;50.098;8.726;2022-11-04T13:18:14;6.25;;;1.40;;
22176;SDS011;11254;50.098;8.726;2022-11-04T13:20:44;3.75;;;1.50;;
22176;SDS011;11254;50.098;8.726;2022-11-04T13:23:16;6.22;;;1.52;;
22176;SDS011;11254;50.098;8.726;2022-11-04T13:25:46;4.43;;;1.40;;
22176;SDS011;11254;50.098;8.726;2022-11-04T13:28:15;5.88;;;1.65;;
22176;SDS011;11254;50.098;8.726;2022-11-04T13:30:46;4.55;;;1.30;;
22176;SDS011;11254;50.098;8.726;2022-11-04T13:33:20;6.78;;;1.55;;
22176;SDS011;11254;50.098;8.726;2022-11-04T13:35:52;4.05;;;1.05;;
22176;SDS011;11254;50.098;8.726;2022-11-04T13:38:23;6.43;;;1.70;;
22176;SDS011;11254;50.098;8.726;2022-11-04T13:40:57;3.72;;;1.10;;
22176;SDS011;11254;50.098;8.726;2022-11-04T13:43:30;7.13;;;1.33;;
22176;SDS011;11254;50.098;8.726;2022-11-04T13:46:15;4.63;;;1.30;;
22176;SDS011;11254;50.098;8.726;2022-11-04T13:48:50;3.60;;;1.10;;
22176;SDS011;11254;50.098;8.726;2022-11-04T13:51:19;7.18;;;1.30;;
22176;SDS011;11254;50.098;8.726;2022-11-04T13:53:49;3.58;;;0.80;;
22176;SDS011;11254;50.098;8.726;2022-11-04T13:56:26;4.72;;;1.52;;
22176;SDS011;11254;50.098;8.726;2022-11-04T13:59:02;5.80;;;1.10;;
22176;SDS011;11254;50.098;8.726;2022-11-04T14:01:31;5.35;;;1.20;;
22176;SDS011;11254;50.098;8.726;2022-11-04T14:04:05;4.63;;;1.20;;
22176;SDS011;11254;50.098;8.726;2022-11-04T14:06:50;4.93;;;1.20;;
22176;SDS011;11254;50.098;8.726;2022-11-04T14:09:23;4.88;;;1.40;;
22176;SDS011;11254;50.098;8.726;2022-11-04T14:14:41;6.68;;;1.70;;
22176;SDS011;11254;50.098;8.726;2022-11-04T14:19:56;12.05;;;2.05;;
22176;SDS011;11254;50.098;8.726;2022-11-04T14:22:28;8.23;;;1.60;;
22176;SDS011;11254;50.098;8.726;2022-11-04T14:24:58;7.07;;;1.80;;
22176;SDS011;11254;50.098;8.726;2022-11-04T14:27:29;6.80;;;1.73;;
22176;SDS011;11254;50.098;8.726;2022-11-04T14:30:00;6.45;;;2.13;;
22176;SDS011;11254;50.098;8.726;2022-11-04T14:32:30;4.30;;;1.65;;
22176;SDS011;11254;50.098;8.726;2022-11-04T14:34:59;4.38;;;1.67;;
22176;SDS011;11254;50.098;8.726;2022-11-04T14:37:29;4.53;;;1.50;;
22176;SDS011;11254;50.098;8.726;2022-11-04T14:40:00;6.57;;;1.85;;
22176;SDS011;11254;50.098;8.726;2022-11-04T14:42:46;7.68;;;2.03;;
22176;SDS011;11254;50.098;8.726;2022-11-04T14:45:19;5.80;;;2.25;;
22176;SDS011;11254;50.098;8.726;2022-11-04T14:47:49;7.05;;;2.15;;
22176;SDS011;11254;50.098;8.726;2022-11-04T14:50:19;7.03;;;2.03;;
22176;SDS011;11254;50.098;8.726;2022-11-04T14:52:48;6.68;;;1.90;;
22176;SDS011;11254;50.098;8.726;2022-11-04T14:55:19;4.72;;;1.52;;
22176;SDS011;11254;50.098;8.726;2022-11-04T14:57:49;3.83;;;1.30;;
22176;SDS011;11254;50.098;8.726;2022-11-04T15:03:11;8.43;;;1.42;;
22176;SDS011;11254;50.098;8.726;2022-11-04T15:06:00;6.95;;;1.27;;
22176;SDS011;11254;50.098;8.726;2022-11-04T15:08:30;6.38;;;1.60;;
22176;SDS011;11254;50.098;8.726;2022-11-04T15:11:00;5.53;;;1.17;;
22176;SDS011;11254;50.098;8.726;2022-11-04T15:13:31;7.20;;;1.90;;
22176;SDS011;11254;50.098;8.726;2022-11-04T15:16:01;5.63;;;1.35;;
22176;SDS011;11254;50.098;8.726;2022-11-04T15:18:35;4.82;;;1.20;;
22176;SDS011;11254;50.098;8.726;2022-11-04T15:21:09;7.07;;;1.52;;
22176;SDS011;11254;50.098;8.726;2022-11-04T15:23:38;8.20;;;1.70;;
22176;SDS011;11254;50.098;8.726;2022-11-04T15:26:14;6.40;;;1.85;;
22176;SDS011;11254;50.098;8.726;2022-11-04T15:28:55;5.47;;;1.73;;
22176;SDS011;11254;50.098;8.726;2022-11-04T15:31:25;5.38;;;1.20;;
22176;SDS011;11254;50.098;8.726;2022-11-04T15:33:56;5.70;;;1.70;;
22176;SDS011;11254;50.098;8.726;2022-11-04T15:36:25;6.70;;;1.90;;